createdAt,value
2018-06-17T00:01:12.730Z,5.93
2018-06-17T00:03:39.607Z,6.50
2018-06-17T00:06:06.683Z,5.97
2018-06-17T00:08:33.509Z,6.00
2018-06-17T00:11:00.397Z,5.80
2018-06-17T00:13:27.302Z,6.30
2018-06-17T00:15:55.186Z,6.20
2018-06-17T00:18:22.300Z,6.33
2018-06-17T00:20:49.121Z,6.60
2018-06-17T00:23:16.010Z,5.95
2018-06-17T00:25:43.048Z,6.42
2018-06-17T00:28:09.852Z,5.60
2018-06-17T00:30:36.681Z,6.20
2018-06-17T00:33:03.514Z,5.60
2018-06-17T00:35:30.403Z,6.23
2018-06-17T00:37:57.323Z,5.90
2018-06-17T00:40:24.153Z,6.33
2018-06-17T00:42:50.981Z,6.00
2018-06-17T00:45:17.965Z,6.10
2018-06-17T00:47:44.814Z,5.57
2018-06-17T00:50:11.639Z,5.87
2018-06-17T00:52:38.466Z,6.37
2018-06-17T00:55:05.334Z,5.60
2018-06-17T00:57:32.169Z,6.37
2018-06-17T00:59:59.008Z,6.50
2018-06-17T01:02:25.886Z,5.90
2018-06-17T01:04:52.918Z,5.57
2018-06-17T01:07:19.736Z,6.37
2018-06-17T01:09:46.608Z,5.90
2018-06-17T01:12:13.466Z,6.20
2018-06-17T01:14:40.323Z,5.57
2018-06-17T01:17:07.148Z,6.03
2018-06-17T01:19:33.997Z,5.77
2018-06-17T01:22:00.864Z,5.73
2018-06-17T01:24:27.854Z,6.20
2018-06-17T01:26:54.728Z,5.70
2018-06-17T01:29:21.640Z,5.77
2018-06-17T01:31:48.461Z,5.97
2018-06-17T01:34:15.366Z,5.90
2018-06-17T01:36:42.203Z,5.90
2018-06-17T01:39:09.043Z,6.50
2018-06-17T01:41:35.867Z,6.12
2018-06-17T01:44:02.759Z,6.30
2018-06-17T01:46:29.595Z,6.30
2018-06-17T01:48:56.443Z,6.00
2018-06-17T01:51:23.270Z,6.20
2018-06-17T01:53:50.123Z,6.27
2018-06-17T01:56:17.033Z,5.20
2018-06-17T01:58:43.866Z,6.70
2018-06-17T02:01:10.728Z,6.23
2018-06-17T02:03:37.616Z,5.90
2018-06-17T02:06:04.635Z,5.80
2018-06-17T02:08:31.466Z,5.70
2018-06-17T02:10:58.492Z,6.53
2018-06-17T02:13:25.313Z,6.08
2018-06-17T02:15:52.172Z,5.20
2018-06-17T02:18:19.009Z,6.37
2018-06-17T02:20:45.860Z,5.27
2018-06-17T02:23:12.777Z,5.50
2018-06-17T02:25:39.757Z,5.87
2018-06-17T02:28:06.582Z,5.50
2018-06-17T02:30:33.413Z,5.90
2018-06-17T02:33:00.243Z,5.53
2018-06-17T02:35:27.121Z,5.80
2018-06-17T02:37:54.813Z,5.37
2018-06-17T02:40:21.665Z,5.65
2018-06-17T02:42:48.534Z,6.23
2018-06-17T02:45:15.544Z,5.23
2018-06-17T02:47:42.398Z,5.90
2018-06-17T02:50:09.427Z,5.50
2018-06-17T02:52:36.289Z,5.80
2018-06-17T02:55:03.357Z,5.80
2018-06-17T02:57:30.165Z,5.17
2018-06-17T02:59:57.005Z,5.93
2018-06-17T03:02:23.881Z,5.83
2018-06-17T03:04:50.874Z,5.70
2018-06-17T03:07:18.118Z,6.13
2018-06-17T03:09:44.925Z,6.23
2018-06-17T03:12:11.749Z,6.10
2018-06-17T03:14:38.679Z,5.67
2018-06-17T03:17:05.495Z,5.43
2018-06-17T03:19:32.344Z,5.97
2018-06-17T03:21:59.192Z,5.53
2018-06-17T03:24:26.028Z,5.30
2018-06-17T03:26:52.850Z,5.70
2018-06-17T03:29:19.734Z,5.80
2018-06-17T03:31:46.763Z,8.50
2018-06-17T03:34:13.617Z,8.65
2018-06-17T03:36:40.418Z,8.45
2018-06-17T03:39:07.227Z,8.93
2018-06-17T03:41:34.083Z,8.97
2018-06-17T03:44:00.912Z,8.43
2018-06-17T03:46:27.749Z,8.80
2018-06-17T03:48:54.570Z,10.57
2018-06-17T03:51:21.395Z,9.60
2018-06-17T03:53:48.231Z,9.13
2018-06-17T03:56:15.185Z,10.33
2018-06-17T03:58:42.012Z,8.90
2018-06-17T04:01:08.824Z,9.18
2018-06-17T04:03:35.647Z,9.30
2018-06-17T04:06:02.596Z,8.87
2018-06-17T04:08:29.408Z,9.03
2018-06-17T04:10:56.231Z,8.50
2018-06-17T04:13:23.051Z,8.40
2018-06-17T04:15:49.927Z,8.50
2018-06-17T04:18:16.744Z,8.73
2018-06-17T04:20:43.572Z,8.20
2018-06-17T04:23:10.409Z,8.57
2018-06-17T04:25:37.324Z,7.60
2018-06-17T04:28:04.122Z,7.95
2018-06-17T04:30:30.946Z,8.60
2018-06-17T04:32:57.780Z,8.23
2018-06-17T04:35:24.681Z,7.23
2018-06-17T04:37:51.490Z,8.20
2018-06-17T04:40:18.321Z,7.80
2018-06-17T04:42:45.215Z,8.23
2018-06-17T04:45:12.096Z,7.50
2018-06-17T04:47:39.147Z,7.55
2018-06-17T04:50:05.964Z,8.77
2018-06-17T04:52:32.868Z,8.00
2018-06-17T04:54:59.922Z,7.37
2018-06-17T04:57:26.744Z,8.37
2018-06-17T04:59:53.615Z,8.13
2018-06-17T05:02:21.068Z,7.30
2018-06-17T05:04:48.035Z,7.00
2018-06-17T05:07:14.903Z,7.97
2018-06-17T05:09:41.725Z,6.97
2018-06-17T05:12:08.572Z,7.83
2018-06-17T05:14:35.599Z,7.30
2018-06-17T05:17:02.482Z,7.23
2018-06-17T05:19:29.304Z,7.17
2018-06-17T05:21:56.172Z,7.60
2018-06-17T05:24:23.029Z,7.67
2018-06-17T05:26:49.904Z,7.60
2018-06-17T05:29:16.739Z,7.17
2018-06-17T05:31:43.566Z,6.47
2018-06-17T05:34:10.392Z,7.43
2018-06-17T05:36:37.461Z,6.90
2018-06-17T05:39:04.304Z,7.37
2018-06-17T05:41:31.140Z,6.20
2018-06-17T05:43:57.983Z,6.90
2018-06-17T05:46:24.964Z,6.70
2018-06-17T05:48:51.797Z,7.13
2018-06-17T05:51:18.672Z,7.40
2018-06-17T05:53:45.563Z,6.60
2018-06-17T05:56:12.542Z,6.37
2018-06-17T05:58:39.389Z,6.33
2018-06-17T06:01:06.220Z,6.95
2018-06-17T06:03:33.063Z,6.78
2018-06-17T06:05:59.931Z,6.65
2018-06-17T06:08:26.840Z,6.90
2018-06-17T06:10:53.662Z,6.83
2018-06-17T06:13:20.728Z,6.17
2018-06-17T06:15:47.699Z,6.20
2018-06-17T06:18:14.522Z,6.73
2018-06-17T06:20:41.363Z,7.00
2018-06-17T06:23:08.196Z,6.13
2018-06-17T06:25:35.080Z,6.10
2018-06-17T06:28:01.920Z,6.97
2018-06-17T06:30:28.790Z,6.10
2018-06-17T06:32:55.624Z,6.40
2018-06-17T06:35:22.714Z,6.33
2018-06-17T06:37:49.532Z,6.80
2018-06-17T06:40:16.373Z,6.62
2018-06-17T06:42:43.206Z,6.70
2018-06-17T06:45:10.293Z,6.12
2018-06-17T06:47:37.094Z,5.40
2018-06-17T06:50:04.006Z,6.92
2018-06-17T06:52:30.972Z,6.50
2018-06-17T06:54:58.041Z,5.70
2018-06-17T06:57:24.881Z,5.70
2018-06-17T06:59:51.676Z,5.53
2018-06-17T07:02:18.772Z,6.20
2018-06-17T07:04:45.793Z,5.12
2018-06-17T07:07:12.598Z,6.42
2018-06-17T07:09:39.431Z,5.93
2018-06-17T07:12:06.312Z,5.77
2018-06-17T07:14:33.181Z,6.00
2018-06-17T07:17:00.015Z,6.17
2018-06-17T07:19:26.848Z,5.07
2018-06-17T07:21:53.671Z,5.40
2018-06-17T07:24:20.521Z,5.67
2018-06-17T07:26:47.326Z,5.67
2018-06-17T07:29:14.157Z,5.37
2018-06-17T07:31:40.984Z,5.80
2018-06-17T07:34:07.820Z,5.53
2018-06-17T07:36:34.666Z,5.27
2018-06-17T07:39:01.597Z,5.10
2018-06-17T07:41:28.448Z,5.90
2018-06-17T07:43:55.337Z,5.10
2018-06-17T07:46:22.110Z,6.43
2018-06-17T07:48:48.971Z,5.17
2018-06-17T07:51:16.295Z,5.78
2018-06-17T07:53:43.098Z,5.00
2018-06-17T07:56:10.088Z,5.00
2018-06-17T07:58:36.959Z,4.90
2018-06-17T08:01:03.807Z,4.62
2018-06-17T08:03:30.669Z,5.42
2018-06-17T08:05:57.661Z,4.75
2018-06-17T08:08:24.516Z,5.03
2018-06-17T08:10:51.394Z,5.00
2018-06-17T08:13:18.179Z,4.97
2018-06-17T08:15:45.081Z,4.70
2018-06-17T08:18:11.911Z,5.63
2018-06-17T08:20:38.752Z,5.10
2018-06-17T08:23:05.587Z,4.83
2018-06-17T08:25:32.412Z,4.30
2018-06-17T08:27:59.244Z,4.33
2018-06-17T08:30:26.075Z,4.58
2018-06-17T08:32:52.891Z,4.28
2018-06-17T08:35:19.796Z,4.40
2018-06-17T08:37:46.616Z,4.43
2018-06-17T08:40:13.449Z,4.10
2018-06-17T08:42:40.295Z,4.13
2018-06-17T08:45:07.181Z,4.83
2018-06-17T08:47:34.025Z,4.33
2018-06-17T08:50:00.866Z,4.77
2018-06-17T08:52:27.705Z,4.33
2018-06-17T08:54:54.755Z,4.20
2018-06-17T08:57:21.635Z,4.03
2018-06-17T08:59:48.561Z,4.10
2018-06-17T09:02:16.295Z,4.08
2018-06-17T09:04:43.153Z,3.83
2018-06-17T09:07:10.148Z,4.30
2018-06-17T09:09:37.006Z,3.77
2018-06-17T09:12:04.085Z,4.17
2018-06-17T09:14:31.181Z,4.00
2018-06-17T09:16:58.003Z,4.12
2018-06-17T09:19:24.864Z,3.93
2018-06-17T09:21:51.671Z,4.10
2018-06-17T09:24:18.500Z,4.37
2018-06-17T09:26:45.334Z,4.40
2018-06-17T09:29:12.206Z,4.10
2018-06-17T09:31:39.048Z,4.13
2018-06-17T09:34:05.854Z,4.55
2018-06-17T09:36:32.672Z,4.78
2018-06-17T09:38:59.498Z,5.03
2018-06-17T09:41:26.334Z,5.00
2018-06-17T09:43:53.159Z,4.80
2018-06-17T09:46:20.081Z,4.73
2018-06-17T09:48:46.922Z,5.20
2018-06-17T09:51:13.749Z,4.93
2018-06-17T09:53:40.599Z,4.77
2018-06-17T09:56:07.667Z,4.90
2018-06-17T09:58:34.564Z,5.10
2018-06-17T10:01:01.365Z,4.80
2018-06-17T10:03:28.191Z,4.85
2018-06-17T10:05:55.252Z,5.07
2018-06-17T10:08:22.064Z,5.23
2018-06-17T10:10:48.923Z,5.00
2018-06-17T10:13:15.778Z,4.95
2018-06-17T10:15:42.861Z,5.42
2018-06-17T10:18:09.698Z,5.65
2018-06-17T10:20:36.545Z,4.67
2018-06-17T10:23:03.390Z,5.17
2018-06-17T10:25:30.384Z,4.63
2018-06-17T10:27:57.201Z,4.60
2018-06-17T10:30:24.091Z,4.93
2018-06-17T10:32:50.887Z,4.90
2018-06-17T10:35:17.752Z,4.83
2018-06-17T10:37:44.614Z,4.90
2018-06-17T10:40:11.446Z,4.43
2018-06-17T10:42:38.269Z,5.43
2018-06-17T10:45:05.158Z,4.70
2018-06-17T10:47:32.006Z,4.97
2018-06-17T10:49:58.835Z,5.15
2018-06-17T10:52:25.671Z,5.10
2018-06-17T10:54:52.715Z,5.10
2018-06-17T10:57:19.536Z,4.50
2018-06-17T10:59:46.397Z,4.90
2018-06-17T11:02:13.843Z,4.83
2018-06-17T11:04:40.683Z,4.85
2018-06-17T11:07:07.519Z,5.05
2018-06-17T11:09:34.438Z,4.63
2018-06-17T11:12:01.252Z,4.90
2018-06-17T11:14:28.314Z,4.63
2018-06-17T11:16:55.179Z,10.67
2018-06-17T11:19:22.724Z,8.07
2018-06-17T11:21:49.578Z,7.23
2018-06-17T11:24:16.503Z,5.80
2018-06-17T11:26:43.387Z,6.50
2018-06-17T11:29:10.155Z,5.83
2018-06-17T11:31:37.030Z,6.10
2018-06-17T11:34:03.869Z,6.33
2018-06-17T11:36:30.727Z,6.87
2018-06-17T11:38:57.589Z,4.80
2018-06-17T11:41:24.409Z,5.10
2018-06-17T11:43:51.242Z,6.17
2018-06-17T11:46:18.279Z,5.27
2018-06-17T11:48:45.246Z,4.60
2018-06-17T11:51:12.089Z,5.93
2018-06-17T11:53:38.942Z,5.57
2018-06-17T11:56:05.816Z,5.28
2018-06-17T11:58:32.650Z,5.50
2018-06-17T12:00:59.499Z,5.42
2018-06-17T12:03:26.325Z,5.77
2018-06-17T12:05:53.323Z,5.23
2018-06-17T12:08:20.171Z,5.33
2018-06-17T12:10:47.040Z,5.10
2018-06-17T12:13:13.842Z,4.73
2018-06-17T12:15:40.978Z,5.33
2018-06-17T12:18:07.843Z,4.50
2018-06-17T12:20:34.698Z,5.13
2018-06-17T12:23:01.529Z,5.90
2018-06-17T12:25:28.572Z,5.00
2018-06-17T12:27:55.411Z,5.67
2018-06-17T12:30:22.275Z,5.10
2018-06-17T12:32:49.085Z,5.30
2018-06-17T12:35:16.127Z,6.13
2018-06-17T12:37:43.009Z,5.40
2018-06-17T12:40:09.866Z,4.83
2018-06-17T12:42:36.750Z,6.30
2018-06-17T12:45:03.700Z,5.05
2018-06-17T12:47:30.532Z,5.13
2018-06-17T12:49:57.425Z,5.10
2018-06-17T12:52:24.269Z,5.17
2018-06-17T12:54:51.277Z,5.00
2018-06-17T12:57:18.118Z,5.60
2018-06-17T12:59:45.016Z,4.47
2018-06-17T13:02:11.944Z,5.00
2018-06-17T13:04:38.885Z,4.65
2018-06-17T13:07:05.688Z,4.40
2018-06-17T13:09:32.573Z,4.40
2018-06-17T13:11:59.420Z,4.07
2018-06-17T13:14:26.433Z,5.27
2018-06-17T13:16:53.304Z,4.87
2018-06-17T13:19:20.208Z,4.90
2018-06-17T13:21:46.993Z,4.30
2018-06-17T13:24:13.895Z,4.90
2018-06-17T13:26:40.731Z,5.00
2018-06-17T13:29:07.616Z,4.53
2018-06-17T13:31:34.406Z,4.45
2018-06-17T13:34:01.231Z,4.12
2018-06-17T13:36:28.061Z,4.33
2018-06-17T13:38:54.891Z,4.23
2018-06-17T13:41:21.718Z,4.20
2018-06-17T13:43:48.530Z,5.03
2018-06-17T13:46:15.387Z,4.13
2018-06-17T13:48:42.240Z,3.87
2018-06-17T13:51:09.078Z,4.07
2018-06-17T13:53:35.895Z,4.20
2018-06-17T13:56:02.774Z,4.12
2018-06-17T13:58:29.645Z,4.70
2018-06-17T14:00:56.490Z,4.30
2018-06-17T14:03:23.340Z,3.70
2018-06-17T14:05:50.373Z,4.30
2018-06-17T14:08:17.258Z,4.43
2018-06-17T14:10:44.106Z,4.07
2018-06-17T14:13:10.932Z,4.33
2018-06-17T14:15:37.934Z,4.17
2018-06-17T14:18:04.769Z,4.03
2018-06-17T14:20:31.622Z,4.30
2018-06-17T14:22:58.459Z,4.00
2018-06-17T14:25:25.485Z,4.10
2018-06-17T14:27:52.337Z,4.70
2018-06-17T14:30:19.163Z,3.93
2018-06-17T14:32:46.044Z,3.90
2018-06-17T14:35:13.061Z,4.10
2018-06-17T14:37:39.883Z,3.90
2018-06-17T14:40:06.713Z,3.77
2018-06-17T14:42:33.534Z,3.87
2018-06-17T14:45:00.446Z,4.20
2018-06-17T14:47:27.707Z,4.13
2018-06-17T14:49:54.740Z,3.90
2018-06-17T14:52:21.592Z,3.23
2018-06-17T14:54:48.720Z,3.67
2018-06-17T14:57:15.607Z,3.73
2018-06-17T14:59:42.524Z,3.77
2018-06-17T15:02:09.362Z,4.13
2018-06-17T15:04:36.273Z,4.28
2018-06-17T15:07:03.085Z,4.45
2018-06-17T15:09:30.000Z,5.00
2018-06-17T15:11:56.843Z,4.07
2018-06-17T15:14:23.833Z,3.90
2018-06-17T15:16:51.045Z,4.20
2018-06-17T15:19:17.791Z,4.10
2018-06-17T15:21:44.746Z,4.40
2018-06-17T15:24:11.581Z,4.12
2018-06-17T15:26:38.399Z,4.00
2018-06-17T15:29:05.229Z,4.57
2018-06-17T15:31:32.047Z,5.83
2018-06-17T15:33:58.948Z,6.70
2018-06-17T15:36:25.772Z,6.07
2018-06-17T15:38:52.619Z,4.43
2018-06-17T15:41:19.449Z,5.00
2018-06-17T15:43:46.271Z,4.78
2018-06-17T15:46:13.188Z,5.10
2018-06-17T15:48:39.990Z,4.67
2018-06-17T15:51:06.843Z,5.20
2018-06-17T15:53:33.661Z,9.03
2018-06-17T15:56:00.546Z,6.17
2018-06-17T15:58:27.392Z,5.03
2018-06-17T16:00:54.269Z,4.77
2018-06-17T16:03:21.092Z,5.20
2018-06-17T16:05:48.089Z,4.90
2018-06-17T16:08:14.918Z,5.25
2018-06-17T16:10:42.263Z,4.87
2018-06-17T16:13:09.080Z,4.90
2018-06-17T16:15:36.101Z,5.00
2018-06-17T16:18:02.912Z,4.63
2018-06-17T16:20:29.765Z,4.30
2018-06-17T16:22:56.673Z,4.97
2018-06-17T16:25:23.660Z,4.65
2018-06-17T16:27:50.490Z,4.95
2018-06-17T16:30:17.343Z,4.58
2018-06-17T16:32:57.253Z,4.20
2018-06-17T16:35:24.214Z,4.10
2018-06-17T16:37:51.038Z,4.43
2018-06-17T16:40:18.716Z,4.78
2018-06-17T16:42:45.836Z,4.30
2018-06-17T16:45:12.743Z,4.07
2018-06-17T16:47:39.646Z,3.67
2018-06-17T16:50:06.478Z,4.55
2018-06-17T16:52:33.853Z,4.60
2018-06-17T16:55:01.763Z,4.10
2018-06-17T16:57:31.006Z,4.13
2018-06-17T16:59:57.839Z,4.50
2018-06-17T17:02:27.104Z,4.17
2018-06-17T17:04:54.116Z,4.47
2018-06-17T17:07:22.553Z,4.40
2018-06-17T17:09:50.693Z,4.30
2018-06-17T17:12:18.314Z,4.20
2018-06-17T17:14:45.767Z,4.20
2018-06-17T17:17:12.848Z,4.10
2018-06-17T17:19:39.796Z,4.97
2018-06-17T17:22:06.659Z,3.77
2018-06-17T17:24:34.964Z,4.33
2018-06-17T17:27:02.319Z,4.17
2018-06-17T17:29:29.639Z,4.47
2018-06-17T17:34:54.450Z,4.20
2018-06-17T17:37:21.301Z,4.33
2018-06-17T17:39:48.855Z,4.55
2018-06-17T17:42:17.392Z,4.50
2018-06-17T17:44:44.312Z,4.03
2018-06-17T17:47:11.134Z,4.37
2018-06-17T17:49:37.989Z,4.10
2018-06-17T17:52:04.822Z,4.12
2018-06-17T17:54:33.320Z,4.13
2018-06-17T17:57:00.138Z,4.43
2018-06-17T17:59:26.969Z,4.45
2018-06-17T18:01:53.820Z,3.80
2018-06-17T18:04:20.653Z,4.70
2018-06-17T18:06:47.971Z,4.20
2018-06-17T18:09:14.867Z,3.53
2018-06-17T18:11:41.724Z,3.40
2018-06-17T18:14:08.542Z,3.62
2018-06-17T18:16:35.778Z,4.20
2018-06-17T18:19:02.715Z,3.60
2018-06-17T18:21:30.843Z,4.00
2018-06-17T18:23:59.156Z,3.93
2018-06-17T18:26:26.348Z,4.90
2018-06-17T18:28:54.137Z,3.83
2018-06-17T18:31:21.850Z,3.60
2018-06-17T18:33:48.823Z,3.60
2018-06-17T18:36:15.806Z,4.10
2018-06-17T18:38:46.191Z,3.00
2018-06-17T18:41:13.167Z,3.77
2018-06-17T18:43:40.042Z,4.53
2018-06-17T18:46:07.048Z,3.90
2018-06-17T18:48:35.135Z,3.77
2018-06-17T18:51:02.075Z,3.67
2018-06-17T18:53:28.938Z,4.13
2018-06-17T18:55:57.589Z,4.10
2018-06-17T18:58:24.540Z,3.40
2018-06-17T19:00:51.793Z,3.33
2018-06-17T19:03:19.309Z,4.13
2018-06-17T19:05:46.295Z,3.67
2018-06-17T19:08:13.809Z,4.40
2018-06-17T19:10:40.803Z,4.03
2018-06-17T19:13:08.565Z,4.20
2018-06-17T19:15:35.615Z,4.30
2018-06-17T19:18:02.491Z,3.80
2018-06-17T19:20:29.339Z,4.37
2018-06-17T19:22:56.252Z,3.72
2018-06-17T19:25:23.167Z,4.03
2018-06-17T19:27:51.114Z,4.37
2018-06-17T19:30:18.020Z,4.10
2018-06-17T19:32:44.922Z,3.30
2018-06-17T19:35:11.996Z,3.77
2018-06-17T19:37:38.892Z,3.73
2018-06-17T19:40:06.085Z,4.30
2018-06-17T19:42:33.446Z,3.87
2018-06-17T19:45:00.627Z,3.37
2018-06-17T19:47:27.864Z,4.27
2018-06-17T19:49:54.818Z,4.60
2018-06-17T19:52:21.696Z,3.73
2018-06-17T19:54:48.745Z,3.85
2018-06-17T19:57:15.723Z,3.33
2018-06-17T19:59:42.624Z,3.70
2018-06-17T20:02:09.490Z,3.10
2018-06-17T20:04:36.531Z,3.87
2018-06-17T20:07:03.410Z,3.63
2018-06-17T20:09:30.286Z,3.67
2018-06-17T20:11:57.218Z,3.52
2018-06-17T20:14:24.263Z,3.62
2018-06-17T20:16:51.152Z,3.53
2018-06-17T20:19:18.059Z,3.80
2018-06-17T20:21:44.970Z,3.50
2018-06-17T20:24:11.806Z,3.80
2018-06-17T20:26:38.712Z,4.00
2018-06-17T20:29:05.549Z,3.75
2018-06-17T20:31:32.593Z,3.90
2018-06-17T20:33:59.482Z,3.67
2018-06-17T20:36:26.406Z,3.37
2018-06-17T20:38:53.257Z,3.77
2018-06-17T20:41:20.293Z,3.80
2018-06-17T20:43:47.179Z,3.63
2018-06-17T20:46:14.566Z,3.30
2018-06-17T20:48:41.379Z,3.87
2018-06-17T20:51:08.246Z,3.85
2018-06-17T20:53:35.102Z,3.67
2018-06-17T20:56:02.025Z,3.75
2018-06-17T20:58:28.871Z,3.65
2018-06-17T21:00:55.719Z,3.63
2018-06-17T21:03:22.570Z,3.53
2018-06-17T21:05:49.560Z,3.70
2018-06-17T21:08:18.792Z,3.53
2018-06-17T21:10:45.628Z,4.17
2018-06-17T21:13:12.489Z,3.62
2018-06-17T21:15:39.557Z,3.83
2018-06-17T21:18:06.443Z,3.90
2018-06-17T21:20:33.919Z,3.15
2018-06-17T21:23:00.852Z,3.50
2018-06-17T21:25:28.543Z,3.60
2018-06-17T21:27:55.759Z,3.47
2018-06-17T21:30:22.618Z,3.60
2018-06-17T21:32:49.464Z,3.27
2018-06-17T21:35:16.373Z,4.10
2018-06-17T21:37:43.257Z,3.65
2018-06-17T21:40:10.221Z,3.95
2018-06-17T21:42:37.030Z,4.00
2018-06-17T21:45:04.444Z,4.22
2018-06-17T21:47:31.456Z,3.60
2018-06-17T21:49:58.720Z,3.93
2018-06-17T21:52:25.546Z,3.90
2018-06-17T21:54:52.559Z,3.92
2018-06-17T21:57:19.379Z,3.80
2018-06-17T21:59:46.227Z,3.80
2018-06-17T22:02:13.125Z,3.45
2018-06-17T22:04:40.142Z,4.22
2018-06-17T22:07:07.024Z,3.52
2018-06-17T22:09:33.803Z,4.00
2018-06-17T22:12:00.614Z,3.27
2018-06-17T22:14:27.505Z,3.40
2018-06-17T22:16:54.334Z,3.33
2018-06-17T22:19:29.063Z,3.30
2018-06-17T22:22:06.101Z,3.07
2018-06-17T22:24:43.328Z,3.40
2018-06-17T22:29:47.986Z,3.40
2018-06-17T22:32:14.798Z,3.10
2018-06-17T22:34:41.783Z,3.42
2018-06-17T22:37:08.606Z,3.65
2018-06-17T22:39:35.443Z,3.37
2018-06-17T22:42:02.258Z,3.43
2018-06-17T22:44:29.148Z,3.17
2018-06-17T22:46:55.981Z,3.20
2018-06-17T22:49:22.795Z,3.23
2018-06-17T22:51:49.620Z,3.80
2018-06-17T22:54:16.443Z,3.23
2018-06-17T22:56:43.270Z,3.42
2018-06-17T22:59:10.353Z,3.12
2018-06-17T23:01:37.112Z,2.98
2018-06-17T23:04:03.950Z,3.17
2018-06-17T23:06:30.809Z,3.40
2018-06-17T23:08:57.631Z,3.10
2018-06-17T23:11:24.473Z,3.20
2018-06-17T23:13:51.258Z,2.70
2018-06-17T23:16:18.098Z,3.13
2018-06-17T23:18:44.917Z,3.00
2018-06-17T23:21:11.740Z,3.40
2018-06-17T23:23:38.567Z,3.12
2018-06-17T23:26:05.478Z,3.67
2018-06-17T23:28:32.293Z,3.10
2018-06-17T23:30:59.118Z,3.10
2018-06-17T23:33:25.938Z,3.43
2018-06-17T23:35:52.844Z,3.20
2018-06-17T23:38:19.645Z,3.27
2018-06-17T23:40:46.460Z,2.93
2018-06-17T23:43:13.326Z,3.17
2018-06-17T23:45:40.220Z,3.42
2018-06-17T23:48:07.049Z,3.00
2018-06-17T23:50:33.870Z,2.90
2018-06-17T23:53:00.684Z,3.15
2018-06-17T23:55:27.593Z,4.00
2018-06-17T23:57:54.417Z,2.80
